createdAt,value
2019-05-23T00:02:42.013Z,12.80
2019-05-23T00:08:11.425Z,13.00
2019-05-23T00:13:35.418Z,12.63
2019-05-23T00:18:42.618Z,14.67
2019-05-23T00:23:48.085Z,14.27
2019-05-23T00:29:09.121Z,15.40
2019-05-23T00:34:02.808Z,14.07
2019-05-23T00:39:09.264Z,13.68
2019-05-23T00:44:15.934Z,14.00
2019-05-23T00:49:22.267Z,11.85
2019-05-23T00:54:27.732Z,15.00
2019-05-23T00:59:33.948Z,14.57
2019-05-23T01:04:40.601Z,12.63
2019-05-23T01:09:46.354Z,13.23
2019-05-23T01:14:51.955Z,13.60
2019-05-23T01:19:58.874Z,15.17
2019-05-23T01:25:05.094Z,15.63
2019-05-23T01:30:13.334Z,13.27
2019-05-23T01:35:20.887Z,14.90
2019-05-23T01:40:26.077Z,12.67
2019-05-23T01:45:33.403Z,17.13
2019-05-23T01:50:39.342Z,12.57
2019-05-23T01:55:44.662Z,17.70
2019-05-23T02:00:50.155Z,17.40
2019-05-23T02:05:55.716Z,20.03
2019-05-23T02:11:01.920Z,18.70
2019-05-23T02:16:08.290Z,19.27
2019-05-23T02:21:16.346Z,17.67
2019-05-23T02:26:23.684Z,17.40
2019-05-23T02:31:28.864Z,18.90
2019-05-23T02:36:34.559Z,18.23
2019-05-23T02:41:54.480Z,18.87
2019-05-23T02:47:18.422Z,15.73
2019-05-23T02:52:41.545Z,20.60
2019-05-23T02:57:48.139Z,17.30
2019-05-23T03:02:58.617Z,14.83
2019-05-23T03:08:08.024Z,15.50
2019-05-23T03:13:13.870Z,15.93
2019-05-23T03:18:21.930Z,14.87
2019-05-23T03:23:28.607Z,15.80
2019-05-23T03:28:42.759Z,20.20
2019-05-23T03:33:48.480Z,15.07
2019-05-23T03:38:55.707Z,15.97
2019-05-23T03:44:01.595Z,16.93
2019-05-23T03:49:08.897Z,17.50
2019-05-23T03:54:15.180Z,17.60
2019-05-23T03:59:22.379Z,17.33
2019-05-23T04:04:27.903Z,15.83
2019-05-23T04:09:34.393Z,15.33
2019-05-23T04:14:39.824Z,17.20
2019-05-23T04:19:44.999Z,18.43
2019-05-23T04:24:50.373Z,15.30
2019-05-23T04:29:56.063Z,16.97
2019-05-23T04:35:01.146Z,16.90
2019-05-23T04:40:09.048Z,15.60
2019-05-23T04:45:15.565Z,16.50
2019-05-23T04:50:21.338Z,18.70
2019-05-23T04:55:27.124Z,19.53
2019-05-23T05:00:33.111Z,19.10
2019-05-23T05:05:38.691Z,16.17
2019-05-23T05:10:45.238Z,17.53
2019-05-23T05:15:50.883Z,15.43
2019-05-23T05:20:57.042Z,17.10
2019-05-23T05:26:03.736Z,14.23
2019-05-23T05:31:09.181Z,14.83
2019-05-23T05:36:14.626Z,16.07
2019-05-23T05:41:20.650Z,16.97
2019-05-23T05:46:25.948Z,15.53
2019-05-23T05:51:31.219Z,11.75
2019-05-23T05:56:36.457Z,15.37
2019-05-23T06:01:41.777Z,15.40
2019-05-23T06:07:06.036Z,14.50
2019-05-23T06:12:12.748Z,14.07
2019-05-23T06:17:19.738Z,14.07
2019-05-23T06:22:25.964Z,12.03
2019-05-23T06:27:31.391Z,13.33
2019-05-23T06:32:38.415Z,14.17
2019-05-23T06:37:43.736Z,15.45
2019-05-23T06:42:50.859Z,13.53
2019-05-23T06:47:56.089Z,14.80
2019-05-23T06:53:02.236Z,14.07
2019-05-23T06:58:08.483Z,14.68
2019-05-23T07:03:14.637Z,14.15
2019-05-23T07:08:25.305Z,14.25
2019-05-23T07:13:31.726Z,13.95
2019-05-23T07:18:37.946Z,15.05
2019-05-23T07:23:43.096Z,15.40
2019-05-23T07:28:48.900Z,15.25
2019-05-23T07:34:01.876Z,15.40
2019-05-23T07:39:01.549Z,14.80
2019-05-23T07:44:08.315Z,14.15
2019-05-23T07:49:13.408Z,13.72
2019-05-23T07:54:23.796Z,12.37
2019-05-23T07:59:29.144Z,15.08
2019-05-23T08:04:35.158Z,15.13
2019-05-23T08:09:41.253Z,13.43
2019-05-23T08:14:46.851Z,14.05
2019-05-23T08:19:52.025Z,15.90
2019-05-23T08:24:57.754Z,14.47
2019-05-23T08:30:03.763Z,13.40
2019-05-23T08:35:09.622Z,13.80
2019-05-23T08:40:17.021Z,13.38
2019-05-23T08:45:22.654Z,15.08
2019-05-23T08:50:28.062Z,13.40
2019-05-23T08:55:34.502Z,15.38
2019-05-23T09:00:40.717Z,15.30
2019-05-23T09:05:47.588Z,11.63
2019-05-23T09:10:52.920Z,12.03
2019-05-23T09:15:58.231Z,14.38
2019-05-23T09:21:05.088Z,12.63
2019-05-23T09:26:10.166Z,9.80
2019-05-23T09:31:15.905Z,10.58
2019-05-23T09:36:21.208Z,11.18
2019-05-23T09:41:26.368Z,10.95
2019-05-23T09:46:31.787Z,9.03
2019-05-23T09:51:37.016Z,9.58
2019-05-23T09:56:42.432Z,8.40
2019-05-23T10:01:48.489Z,8.90
2019-05-23T10:06:54.204Z,8.18
2019-05-23T10:11:59.945Z,7.20
2019-05-23T10:17:05.465Z,7.53
2019-05-23T10:22:11.273Z,7.70
2019-05-23T10:27:16.410Z,7.33
2019-05-23T10:32:21.634Z,7.53
2019-05-23T10:37:28.531Z,8.35
2019-05-23T10:42:34.444Z,8.38
2019-05-23T10:47:39.923Z,6.53
2019-05-23T10:52:45.535Z,10.90
2019-05-23T10:57:51.112Z,7.10
2019-05-23T11:02:56.553Z,6.28
2019-05-23T11:08:02.821Z,6.72
2019-05-23T11:13:08.398Z,4.65
2019-05-23T11:18:13.735Z,5.25
2019-05-23T11:23:24.891Z,4.55
2019-05-23T11:28:31.723Z,5.62
2019-05-23T11:33:36.936Z,4.83
2019-05-23T11:38:42.045Z,6.35
2019-05-23T11:43:47.431Z,6.45
2019-05-23T11:48:53.653Z,5.62
2019-05-23T11:54:07.954Z,5.35
2019-05-23T11:59:05.975Z,5.33
2019-05-23T12:04:15.093Z,4.47
2019-05-23T12:09:21.810Z,5.05
2019-05-23T12:14:27.041Z,5.47
2019-05-23T12:19:32.896Z,5.62
2019-05-23T12:24:38.345Z,7.15
2019-05-23T12:29:44.384Z,5.95
2019-05-23T12:35:08.549Z,6.90
2019-05-23T12:39:57.378Z,5.87
2019-05-23T12:45:02.917Z,5.12
2019-05-23T12:50:13.148Z,4.87
2019-05-23T12:55:18.594Z,5.22
2019-05-23T13:00:43.151Z,4.28
2019-05-23T13:05:50.823Z,4.60
2019-05-23T13:10:56.081Z,5.42
2019-05-23T13:16:01.410Z,5.37
2019-05-23T13:21:07.230Z,4.22
2019-05-23T13:26:12.745Z,4.72
2019-05-23T13:31:17.956Z,4.42
2019-05-23T13:36:23.558Z,4.33
2019-05-23T13:41:28.712Z,5.30
2019-05-23T13:46:34.103Z,3.80
2019-05-23T13:51:40.089Z,4.35
2019-05-23T13:56:47.755Z,5.75
2019-05-23T14:01:53.294Z,4.35
2019-05-23T14:06:58.539Z,3.72
2019-05-23T14:12:20.729Z,4.17
2019-05-23T14:17:32.934Z,6.78
2019-05-23T14:22:42.091Z,4.00
2019-05-23T14:27:53.582Z,4.45
2019-05-23T14:33:00.697Z,4.45
2019-05-23T14:38:07.708Z,3.80
2019-05-23T14:43:18.076Z,6.58
2019-05-23T14:48:51.392Z,4.45
2019-05-23T14:54:22.136Z,3.75
2019-05-23T14:59:29.523Z,4.15
2019-05-23T15:04:35.085Z,3.77
2019-05-23T15:09:40.499Z,4.28
2019-05-23T15:14:45.565Z,4.30
2019-05-23T15:19:51.367Z,4.78
2019-05-23T15:24:56.534Z,5.10
2019-05-23T15:30:02.634Z,4.80
2019-05-23T15:35:08.146Z,5.33
2019-05-23T15:40:14.072Z,4.97
2019-05-23T15:45:19.540Z,5.05
2019-05-23T15:50:28.354Z,3.98
2019-05-23T15:55:55.817Z,5.12
2019-05-23T16:01:11.079Z,4.65
2019-05-23T16:06:19.313Z,4.72
2019-05-23T16:11:25.856Z,7.17
2019-05-23T16:16:31.432Z,4.95
2019-05-23T16:21:37.411Z,4.10
2019-05-23T16:26:43.130Z,5.67
2019-05-23T16:31:48.266Z,4.70
2019-05-23T16:36:53.610Z,4.10
2019-05-23T16:41:59.495Z,4.00
2019-05-23T16:47:04.912Z,3.60
2019-05-23T16:52:10.002Z,3.30
2019-05-23T16:57:27.573Z,3.22
2019-05-23T17:02:45.977Z,4.25
2019-05-23T17:08:04.261Z,3.10
2019-05-23T17:13:35.541Z,2.80
2019-05-23T17:19:06.888Z,2.45
2019-05-23T17:24:22.798Z,3.60
2019-05-23T17:29:52.858Z,2.85
2019-05-23T17:35:00.196Z,3.37
2019-05-23T17:40:05.899Z,4.95
2019-05-23T17:45:14.216Z,3.35
2019-05-23T17:50:18.670Z,3.35
2019-05-23T17:55:24.469Z,2.65
2019-05-23T18:00:36.132Z,3.72
2019-05-23T18:05:42.302Z,3.02
2019-05-23T18:10:48.348Z,3.02
2019-05-23T18:15:55.580Z,3.85
2019-05-23T18:21:01.518Z,2.72
2019-05-23T18:26:07.829Z,2.77
2019-05-23T18:31:17.443Z,3.37
2019-05-23T18:36:23.172Z,5.00
2019-05-23T18:41:29.271Z,3.05
2019-05-23T18:46:39.829Z,2.60
2019-05-23T18:51:52.540Z,2.77
2019-05-23T18:56:59.884Z,3.47
2019-05-23T19:02:06.484Z,2.80
2019-05-23T19:07:12.946Z,3.02
2019-05-23T19:12:18.620Z,2.87
2019-05-23T19:17:24.195Z,3.52
2019-05-23T19:22:30.262Z,3.35
2019-05-23T19:27:35.704Z,4.58
2019-05-23T19:32:41.230Z,5.12
2019-05-23T19:37:47.344Z,4.40
2019-05-23T19:42:53.253Z,5.92
2019-05-23T19:47:58.517Z,5.08
2019-05-23T19:53:03.994Z,6.90
2019-05-23T19:58:11.072Z,7.00
2019-05-23T20:03:18.552Z,7.50
2019-05-23T20:08:24.024Z,6.00
2019-05-23T20:13:29.283Z,7.33
2019-05-23T20:18:34.448Z,6.92
2019-05-23T20:23:40.037Z,6.40
2019-05-23T20:28:45.460Z,6.30
2019-05-23T20:33:51.555Z,6.90
2019-05-23T20:38:57.625Z,8.85
2019-05-23T20:44:03.180Z,11.60
2019-05-23T20:49:08.389Z,6.83
2019-05-23T20:54:13.655Z,8.38
2019-05-23T20:59:19.202Z,8.95
2019-05-23T21:04:24.237Z,8.95
2019-05-23T21:09:30.503Z,7.03
2019-05-23T21:14:35.720Z,7.05
2019-05-23T21:19:40.930Z,6.70
2019-05-23T21:24:46.085Z,7.60
2019-05-23T21:29:51.585Z,7.70
2019-05-23T21:34:57.201Z,7.90
2019-05-23T21:40:02.751Z,8.65
2019-05-23T21:45:08.285Z,10.55
2019-05-23T21:50:13.740Z,8.63
2019-05-23T21:55:26.803Z,8.05
2019-05-23T22:01:11.854Z,8.15
2019-05-23T22:06:18.751Z,8.28
2019-05-23T22:11:24.147Z,8.83
2019-05-23T22:16:29.292Z,9.33
2019-05-23T22:21:34.734Z,7.60
2019-05-23T22:26:39.947Z,7.12
2019-05-23T22:31:45.305Z,9.40
2019-05-23T22:36:50.539Z,10.65
2019-05-23T22:41:55.759Z,8.50
2019-05-23T22:47:00.905Z,8.33
2019-05-23T22:52:06.397Z,10.45
2019-05-23T22:57:11.766Z,10.58
2019-05-23T23:02:18.154Z,8.90
2019-05-23T23:07:23.820Z,10.55
2019-05-23T23:12:29.075Z,10.10
2019-05-23T23:17:34.307Z,10.28
2019-05-23T23:22:40.209Z,10.13
2019-05-23T23:27:45.349Z,10.93
2019-05-23T23:32:50.603Z,12.35
2019-05-23T23:37:55.760Z,10.58
2019-05-23T23:43:01.226Z,12.58
2019-05-23T23:48:24.429Z,13.40
2019-05-23T23:53:47.365Z,10.10
2019-05-23T23:58:51.801Z,11.40
